Latest Weather Observations for Essendon Airport

IDV60901

Issued at 11:31 pm EST Monday 27 April 2015 (issued every 10 minutes, with the page automatically refreshed every 10 minutes)

About weather observations | Map of Melbourne area stations | Latest observations for Melbourne area | Other Formats
Station Details ID: 086038 Name: ESSENDON AIRPORT Lat: -37.73 Lon: 144.91 Height: 78.4 m
Data from the previous 72 hours. | See also: Recent months at Essendon Airport
Date/Time
EST
Tmp

°C
App
Tmp
°C
Dew
Point
°C
Rel
Hum
%
Delta-T

°C
Wind Press
QNH
hPa
Press
MSL
hPa
Rain
since
9 am
mm
Dir
 
Spd
km/h
Gust
km/h
Spd
kts
Gust
kts
27/11:30pm 10.5 7.6 8.1 85 1.2 W 13 17 7 9 1026.0 1026.0 0.0
27/11:00pm 11.1 7.8 8.1 82 1.5 W 15 19 8 10 1026.0 1026.0 0.0
27/10:30pm 11.1 8.6 8.3 83 1.4 WSW 11 13 6 7 1026.0 1026.0 0.0
27/10:00pm 11.3 8.2 8.7 84 1.3 WSW 15 19 8 10 1026.0 1026.0 0.0
27/09:30pm 11.3 8.7 9.4 88 1.0 WSW 13 15 7 8 1025.8 1025.8 0.0
27/09:00pm 11.5 9.3 9.2 86 1.1 SW 11 15 6 8 1025.6 1025.6 0.0
27/08:30pm 11.5 8.7 8.7 83 1.4 SW 13 17 7 9 1025.4 1025.4 0.0
27/08:00pm 12.4 9.4 9.2 81 1.6 SSW 15 20 8 11 1025.1 1025.1 0.0
27/07:30pm 12.7 9.5 8.6 76 2.1 SSW 15 20 8 11 1024.9 1024.9 0.0
27/07:00pm 12.9 10.3 9.5 80 1.7 SSW 13 19 7 10 1024.6 1024.6 0.0
27/06:30pm 13.0 9.3 9.6 80 1.7 SSW 19 26 10 14 1024.3 1024.3 0.0
27/06:00pm 13.2 10.2 9.1 76 2.1 SSW 15 20 8 11 1023.9 1023.9 0.0
27/05:30pm 13.2 9.3 8.7 74 2.3 SSW 19 30 10 16 1023.8 1023.8 0.0
27/05:00pm 13.6 10.3 9.6 77 2.0 SSW 17 24 9 13 1023.5 1023.5 0.0
27/04:30pm 13.6 10.3 9.5 76 2.1 SSW 17 20 9 11 1023.4 1023.4 0.0
27/04:00pm 13.6 10.2 9.3 75 2.2 S 17 24 9 13 1023.2 1023.2 0.0
27/03:30pm 14.0 10.2 9.2 73 2.5 S 19 24 10 13 1023.1 1023.1 0.0
27/03:00pm 13.8 9.9 9.6 76 2.2 S 20 26 11 14 1023.1 1023.1 0.0
27/02:30pm 13.9 10.0 8.7 71 2.6 SSW 19 26 10 14 1022.9 1022.9 0.0
27/02:00pm 14.6 11.6 9.4 71 2.7 SSW 15 20 8 11 1022.6 1022.6 0.0
27/01:30pm 14.6 10.7 8.5 67 3.1 SW 19 26 10 14 1022.5 1022.5 0.0
27/01:00pm 14.4 10.0 7.5 63 3.4 SSW 20 30 11 16 1022.7 1022.7 0.0
27/12:30pm 13.7 9.5 8.3 70 2.7 SW 20 30 11 16 1022.9 1022.9 0.0
27/12:00pm 13.9 10.1 8.9 72 2.5 SSW 19 24 10 13 1023.1 1023.1 0.0
27/11:30am 14.1 9.9 8.1 67 3.0 SSW 20 28 11 15 1023.2 1023.2 0.0
27/11:00am 14.2 9.8 8.8 70 2.7 SW 22 30 12 16 1023.3 1023.3 0.0
27/10:30am 14.1 9.3 8.9 71 2.6 SW 24 32 13 17 1023.4 1023.4 0.0
27/10:00am 13.8 9.1 9.3 74 2.3 SW 24 32 13 17 1023.3 1023.3 0.0
27/09:30am 13.3 9.6 9.5 78 1.9 WSW 19 24 10 13 1023.1 1023.1 0.0
27/09:00am 12.0 8.0 9.2 83 1.4 WSW 20 26 11 14 1023.2 1023.2 0.2
27/08:30am 11.2 7.4 8.9 86 1.1 W 19 26 10 14 1022.9 1022.9 0.2
27/08:00am 10.7 7.6 9.0 89 0.8 W 15 20 8 11 1022.9 1022.9 0.2
27/07:30am 10.4 7.3 9.0 91 0.7 W 15 20 8 11 1022.5 1022.5 0.2
27/07:00am 10.3 6.3 9.2 93 0.5 W 20 26 11 14 1022.2 1022.1 0.2
27/06:30am 10.3 6.4 9.4 94 0.5 W 20 28 11 15 1021.9 1021.8 0.2
27/06:00am 10.3 6.3 9.1 92 0.6 W 20 28 11 15 1021.7 1021.6 0.2
27/05:30am 10.2 6.2 9.0 92 0.6 W 20 26 11 14 1021.6 1021.5 0.2
27/05:00am 10.2 6.2 9.0 92 0.6 WSW 20 26 11 14 1021.3 1021.2 0.2
27/04:30am 10.3 5.9 8.9 91 0.7 WSW 22 33 12 18 1021.1 1021.0 0.2
27/04:00am 10.4 6.3 8.7 89 0.8 WSW 20 30 11 16 1021.0 1020.9 0.2
27/03:30am 10.5 6.4 8.8 89 0.8 WSW 20 26 11 14 1020.9 1020.8 0.2
27/03:00am 10.3 6.8 8.7 90 0.8 W 17 26 9 14 1020.9 1020.8 0.2
27/02:30am 10.2 6.3 8.6 90 0.8 W 19 24 10 13 1020.7 1020.6 0.2
27/02:00am 10.2 6.1 8.5 89 0.8 W 20 26 11 14 1020.8 1020.7 0.2
27/01:30am 10.5 6.4 8.6 88 0.9 W 20 24 11 13 1020.7 1020.6 0.2
27/01:00am 10.4 6.8 8.5 88 0.9 W 17 20 9 11 1020.8 1020.7 0.2
27/12:30am 10.4 6.4 8.3 87 1.0 W 19 24 10 13 1020.9 1020.8 0.2
27/12:00am 10.5 6.3 8.4 87 1.0 W 20 26 11 14 1021.0 1020.9 0.2
 
Date/Time
EST
Tmp

°C
App
Tmp
°C
Dew
Point
°C
Rel
Hum
%
Delta-T

°C
Wind Press
QNH
hPa
Press
MSL
hPa
Rain
since
9 am
mm
Dir
 
Spd
km/h
Gust
km/h
Spd
kts
Gust
kts
26/11:30pm 10.6 6.6 8.4 86 1.1 W 19 26 10 14 1021.1 1021.0 0.2
26/11:00pm 10.5 6.9 8.4 87 1.0 W 17 22 9 12 1021.1 1021.0 0.2
26/10:30pm 10.7 6.5 8.1 84 1.3 W 20 28 11 15 1021.1 1021.0 0.2
26/10:00pm 11.1 6.9 8.3 83 1.4 W 20 28 11 15 1021.2 1021.1 0.2
26/09:30pm 11.3 7.0 7.8 79 1.7 W 20 30 11 16 1021.2 1021.1 0.2
26/09:00pm 11.3 6.6 7.6 78 1.8 W 22 28 12 15 1021.1 1021.0 0.2
26/08:30pm 11.5 7.1 7.4 76 2.0 WSW 20 28 11 15 1020.8 1020.7 0.2
26/08:00pm 11.5 6.8 7.8 78 1.8 WSW 22 28 12 15 1020.8 1020.7 0.2
26/07:30pm 11.5 6.4 7.8 78 1.8 W 24 30 13 16 1020.6 1020.5 0.2
26/07:00pm 11.9 6.5 8.2 78 1.8 WSW 26 33 14 18 1020.7 1020.6 0.2
26/06:30pm 12.3 6.9 7.8 74 2.2 WSW 26 33 14 18 1020.5 1020.4 0.2
26/06:00pm 12.7 6.8 7.6 71 2.5 WSW 28 37 15 20 1020.1 1020.0 0.2
26/05:30pm 12.9 7.1 7.8 71 2.5 SW 28 37 15 20 1019.8 1019.7 0.2
26/05:00pm 13.3 8.2 7.5 68 2.8 SSW 24 33 13 18 1019.4 1019.3 0.2
26/04:30pm 13.7 9.6 8.7 72 2.5 SW 20 28 11 15 1019.2 1019.1 0.2
26/04:00pm 13.9 9.4 8.7 71 2.6 SSW 22 30 12 16 1019.0 1018.9 0.2
26/03:30pm 13.7 8.8 8.5 71 2.6 SSW 24 33 13 18 1018.8 1018.7 0.2
26/03:00pm 13.8 9.2 9.5 75 2.2 S 24 37 13 20 1018.7 1018.6 0.2
26/02:30pm 14.2 9.7 8.6 69 2.8 S 22 30 12 16 1018.4 1018.3 0.2
26/02:00pm 14.1 8.7 7.9 66 3.1 SSW 26 32 14 17 1018.4 1018.3 0.2
26/01:30pm 13.9 8.7 8.7 71 2.6 SSW 26 35 14 19 1018.3 1018.2 0.2
26/01:00pm 13.9 9.2 9.3 74 2.3 SW 24 33 13 18 1018.4 1018.3 0.2
26/12:30pm 11.8 9.7 11.3 97 0.3 SSW 13 19 7 10 1018.7 1018.6 0.2
26/12:24pm 11.7 9.3 11.4 98 0.2 SSW 15 19 8 10 1018.8 1018.7 0.2
26/12:06pm 11.1 6.4 10.6 97 0.3 SW 26 43 14 23 1019.1 1019.0 0.2
26/12:01pm 11.3 5.5 10.7 96 0.3 SW 32 44 17 24 1019.1 1019.0 0.2
26/12:00pm 11.5 5.5 10.9 96 0.3 SW 33 44 18 24 1019.1 1019.0 0.2
26/11:54am 11.6 6.0 10.2 91 0.7 WSW 30 43 16 23 1019.0 1018.9 0.2
26/11:49am 11.8 7.3 10.2 90 0.8 SW 24 35 13 19 1018.9 1018.8 0.2
26/11:30am 12.4 8.8 9.8 84 1.3 SW 19 24 10 13 1018.9 1018.8 0.2
26/11:00am 11.4 7.1 10.6 95 0.4 SW 24 32 13 17 1019.0 1018.9 0.2
26/10:30am 11.2 6.5 10.7 97 0.3 WSW 26 32 14 17 1018.8 1018.7 0.2
26/10:00am 11.3 6.8 10.2 93 0.6 SW 24 32 13 17 1018.9 1018.8 0.2
26/09:30am 10.8 5.9 10.0 95 0.4 WSW 26 37 14 20 1018.7 1018.6 0.2
26/09:00am 10.6 6.6 10.4 99 0.1 WSW 22 33 12 18 1018.5 1018.4 10.4
26/08:30am 10.0 5.8 9.9 99 0.1 WSW 22 30 12 16 1018.3 1018.2 10.4
26/08:18am 10.0 5.8 9.9 99 0.1 WSW 22 32 12 17 1018.1 1018.0 10.4
26/08:00am 9.9 6.1 9.8 99 0.1 WSW 20 28 11 15 1017.9 1017.8 10.4
26/07:30am 9.9 5.3 9.8 99 0.1 WSW 24 33 13 18 1017.3 1017.2 10.4
26/07:21am 9.8 5.2 9.7 99 0.1 WSW 24 32 13 17 1017.2 1017.1 10.4
26/07:00am 9.6 5.9 9.5 99 0.0 WSW 19 24 10 13 1017.0 1016.9 10.4
26/06:30am 9.5 5.2 9.4 99 0.0 WSW 22 30 12 16 1016.6 1016.5 10.4
26/06:00am 9.8 4.3 9.3 97 0.2 WSW 28 39 15 21 1016.3 1016.2 10.4
26/05:30am 9.7 4.9 8.9 95 0.4 WSW 24 33 13 18 1016.0 1015.9 10.4
26/05:00am 9.9 5.6 9.4 97 0.2 WSW 22 28 12 15 1015.9 1015.8 10.4
26/04:30am 9.9 5.1 8.8 93 0.5 WSW 24 32 13 17 1015.7 1015.6 10.4
26/04:00am 10.0 4.9 9.2 95 0.4 WSW 26 35 14 19 1015.5 1015.4 10.4
26/03:30am 10.4 4.5 9.0 91 0.7 WSW 30 35 16 19 1015.2 1015.1 10.4
26/03:00am 10.5 4.5 8.8 89 0.8 WSW 30 35 16 19 1015.0 1015.0 10.4
26/02:30am 10.9 5.7 8.7 86 1.1 WSW 26 35 14 19 1014.9 1014.9 10.4
26/02:00am 10.9 4.5 8.5 85 1.2 WSW 32 39 17 21 1014.8 1014.8 10.4
26/01:30am 11.3 6.4 8.5 83 1.4 WSW 24 37 13 20 1015.0 1015.0 10.4
26/01:00am 11.2 7.3 9.3 88 1.0 WSW 20 28 11 15 1014.8 1014.8 10.4
26/12:30am 11.1 7.0 10.0 93 0.6 WSW 22 28 12 15 1014.6 1014.6 10.4
26/12:00am 11.5 6.3 10.1 91 0.7 WSW 28 39 15 21 1014.3 1014.3 10.4
 
Date/Time
EST
Tmp

°C
App
Tmp
°C
Dew
Point
°C
Rel
Hum
%
Delta-T

°C
Wind Press
QNH
hPa
Press
MSL
hPa
Rain
since
9 am
mm
Dir
 
Spd
km/h
Gust
km/h
Spd
kts
Gust
kts
25/11:30pm 11.7 7.7 10.3 91 0.7 WSW 22 28 12 15 1014.1 1014.1 10.4
25/11:00pm 11.9 7.1 10.3 90 0.8 WSW 26 35 14 19 1014.0 1014.0 10.4
25/10:30pm 12.7 7.5 10.1 84 1.3 SW 28 41 15 22 1013.7 1013.7 10.4
25/10:00pm 12.7 8.2 10.2 85 1.3 SW 24 37 13 20 1013.6 1013.6 10.4
25/09:30pm 12.9 7.5 10.8 87 1.1 SW 30 39 16 21 1013.3 1013.3 10.4
25/09:00pm 13.0 8.1 11.2 89 1.0 SW 28 39 15 21 1013.1 1013.1 10.4
25/08:34pm 12.9 7.7 11.6 92 0.7 SW 30 48 16 26 1012.7 1012.7 10.4
25/08:30pm 13.0 7.8 11.7 92 0.7 SSW 30 39 16 21 1012.7 1012.7 10.4
25/08:05pm 13.2 9.0 12.3 94 0.5 SW 26 35 14 19 1012.3 1012.3 10.4
25/08:00pm 13.2 9.4 12.4 95 0.4 SW 24 35 13 19 1012.2 1012.2 10.4
25/07:50pm 13.1 9.3 12.5 96 0.3 SW 24 39 13 21 1012.1 1012.1 10.2
25/07:46pm 13.0 8.8 12.4 96 0.3 SSW 26 39 14 21 1012.1 1012.1 10.2
25/07:38pm 12.9 9.6 12.7 99 0.1 SW 22 33 12 18 1012.0 1012.0 10.2
25/07:30pm 12.8 10.4 12.8 100 0.0 SW 17 24 9 13 1012.0 1012.0 10.2
25/07:29pm 12.8 10.1 12.8 100 0.0 SSW 19 26 10 14 1012.0 1012.0 10.2
25/07:25pm 12.8 9.8 12.6 99 0.1 SSW 20 30 11 16 1011.9 1011.9 10.2
25/07:09pm 13.1 8.7 12.9 99 0.1 SSW 28 37 15 20 1011.8 1011.8 9.0
25/07:00pm 13.3 10.3 12.7 96 0.3 SSW 20 28 11 15 1011.7 1011.7 8.4
25/06:56pm 13.3 10.6 12.8 97 0.3 SSW 19 24 10 13 1011.6 1011.6 8.4
25/06:30pm 13.1 10.4 12.8 98 0.2 SSW 19 30 10 16 1011.3 1011.2 8.4
25/06:00pm 13.1 10.8 12.9 99 0.1 SW 17 24 9 13 1010.8 1010.7 8.0
25/05:50pm 13.1 10.2 12.9 99 0.1 SSW 20 28 11 15 1010.6 1010.5 8.0
25/05:38pm 13.2 11.0 13.2 100 0.0 SW 17 28 9 15 1010.6 1010.5 7.8
25/05:30pm 13.3 11.5 13.3 100 0.0 SW 15 19 8 10 1010.3 1010.2 7.4
25/05:15pm 13.2 11.0 13.2 100 0.0 SW 17 22 9 12 1010.1 1010.0 7.4
25/05:00pm 13.2 10.6 13.2 100 0.0 WSW 19 24 10 13 1010.0 1009.9 7.2
25/04:51pm 13.1 10.3 13.1 100 0.0 WSW 20 26 11 14 1009.8 1009.7 7.2
25/04:30pm 13.2 10.3 13.0 99 0.1 WSW 20 30 11 16 1009.7 1009.6 6.2
25/04:23pm 13.3 10.7 13.1 99 0.1 SW 19 30 10 16 1009.6 1009.5 5.0
25/04:15pm 13.9 12.5 13.4 97 0.3 SW 13 15 7 8 1009.6 1009.5 3.2
25/04:04pm 14.0 12.2 13.4 96 0.3 SSW 15 20 8 11 1009.5 1009.4 3.2
25/04:00pm 13.9 12.0 13.1 95 0.4 SSW 15 20 8 11 1009.5 1009.4 3.2
25/03:31pm 14.1 12.0 13.6 97 0.3 SW 17 22 9 12 1009.3 1009.2 3.2
25/03:30pm 14.3 12.3 13.8 97 0.3 SW 17 22 9 12 1009.3 1009.2 3.2
25/03:25pm 14.0 11.8 13.4 96 0.3 SW 17 20 9 11 1009.2 1009.1 3.2
25/03:00pm 13.9 12.5 13.4 97 0.3 WSW 13 19 7 10 1009.0 1008.9 3.2
25/02:30pm 14.0 13.0 13.5 97 0.3 W 11 15 6 8 1008.8 1008.7 3.0
25/02:00pm 13.4 12.6 12.9 97 0.3 WNW 9 15 5 8 1008.7 1008.6 3.0
25/01:30pm 13.4 12.3 13.1 98 0.2 WNW 11 13 6 7 1008.5 1008.4 3.0
25/01:07pm 13.2 11.6 12.9 98 0.2 W 13 15 7 8 1008.7 1008.6 2.8
25/01:00pm 12.9 11.6 12.4 97 0.3 W 11 15 6 8 1008.7 1008.6 2.8
25/12:30pm 12.4 11.0 12.1 98 0.2 W 11 13 6 7 1008.9 1008.8 2.6
25/12:00pm 12.2 10.6 11.7 97 0.3 W 11 15 6 8 1009.0 1008.9 2.2
25/11:30am 11.9 10.3 11.4 97 0.3 W 11 15 6 8 1009.1 1009.0 2.0
25/11:00am 11.7 9.7 11.5 99 0.1 WSW 13 17 7 9 1009.2 1009.1 2.0
25/10:30am 11.4 9.3 11.2 99 0.1 W 13 17 7 9 1009.1 1009.0 1.8
25/10:00am 11.0 9.5 10.7 98 0.2 NW 9 13 5 7 1009.1 1009.0 1.0
25/09:30am 11.3 10.4 10.8 97 0.3 W 6 9 3 5 1009.1 1009.0 0.0
25/09:00am 11.0 11.2 10.5 97 0.3 CALM 0 0 0 0 1008.8 1008.7 5.6
25/08:30am 10.9 11.1 10.6 98 0.2 CALM 0 0 0 0 1008.2 1008.1 5.2
25/08:00am 10.7 10.8 10.2 97 0.3 CALM 0 0 0 0 1007.9 1007.8 5.0
25/07:30am 10.7 9.4 10.1 96 0.3 SSW 7 9 4 5 1007.6 1007.5 4.4
25/07:00am 10.7 9.6 9.9 95 0.4 WSW 6 9 3 5 1007.4 1007.3 4.4
25/06:30am 10.8 8.7 9.9 94 0.5 W 11 15 6 8 1007.2 1007.1 4.2
25/06:00am 10.9 8.5 10.1 95 0.4 WNW 13 15 7 8 1007.0 1006.9 4.2
25/05:57am 10.9 8.6 10.3 96 0.3 WNW 13 19 7 10 1006.9 1006.8 4.2
25/05:30am 11.1 8.0 10.3 95 0.4 W 17 20 9 11 1006.6 1006.5 4.2
25/05:00am 11.3 7.7 10.4 94 0.5 SW 20 26 11 14 1006.4 1006.3 4.0
25/04:55am 11.2 7.2 10.6 96 0.3 SW 22 28 12 15 1006.2 1006.1 4.0
25/04:30am 12.8 11.9 12.6 99 0.1 WSW 9 13 5 7 1006.1 1006.0 3.6
25/04:23am 12.8 13.2 12.6 99 0.1 WNW 2 9 1 5 1006.1 1006.0 3.6
25/04:00am 12.7 12.7 12.5 99 0.1 WNW 4 7 2 4 1006.0 1005.9 3.6
25/03:30am 12.8 12.5 12.6 99 0.1 WNW 6 7 3 4 1006.1 1006.0 3.6
25/03:11am 12.9 12.6 12.7 99 0.1 SSE 6 9 3 5 1006.1 1006.0 3.6
25/03:02am 12.9 12.4 12.7 99 0.1 SE 7 11 4 6 1005.9 1005.8 3.6
25/03:00am 12.9 12.0 12.7 99 0.1 SE 9 11 5 6 1005.8 1005.7 3.6
25/02:30am 12.9 13.0 12.7 99 0.1 SE 4 6 2 3 1006.0 1005.9 3.6
25/02:00am 12.8 13.6 12.6 99 0.1 CALM 0 0 0 0 1006.3 1006.2 3.6
25/01:46am 12.8 12.9 12.6 99 0.1 SE 4 6 2 3 1006.3 1006.2 3.6
25/01:30am 12.8 12.3 12.6 99 0.1 SE 7 9 4 5 1006.2 1006.1 3.6
25/01:00am 12.9 12.0 12.7 99 0.1 SSE 9 11 5 6 1006.4 1006.3 3.6
25/12:30am 13.1 12.3 12.9 99 0.1 S 9 11 5 6 1006.4 1006.3 3.6
25/12:00am 12.9 12.4 12.7 99 0.1 E 7 9 4 5 1006.3 1006.2 3.6

Latest Capital City Observations: Canberra | Sydney | Melbourne | Brisbane | Adelaide | Perth | Hobart | Darwin

Other Formats:

Comma delimited format used in spreadsheet applications
http://www.bom.gov.au/fwo/IDV60901/IDV60901.95866.axf

JavaScript Object Notation format (JSON) in row-major order
http://www.bom.gov.au/fwo/IDV60901/IDV60901.95866.json